createdAt,value
2022-08-01T00:01:16.799Z,1.40
2022-08-01T00:03:44.845Z,1.40
2022-08-01T00:06:12.809Z,1.60
2022-08-01T00:08:40.732Z,1.40
2022-08-01T00:11:10.344Z,1.90
2022-08-01T00:13:38.304Z,1.30
2022-08-01T00:16:06.445Z,1.50
2022-08-01T00:18:35.568Z,1.40
2022-08-01T00:21:05.139Z,1.80
2022-08-01T00:23:33.322Z,1.50
2022-08-01T00:26:01.773Z,1.60
2022-08-01T00:28:29.720Z,1.40
2022-08-01T00:30:57.693Z,1.40
2022-08-01T00:33:25.772Z,1.40
2022-08-01T00:35:53.882Z,1.30
2022-08-01T00:38:21.836Z,1.60
2022-08-01T00:40:50.008Z,1.60
2022-08-01T00:43:18.167Z,2.10
2022-08-01T00:45:46.250Z,2.00
2022-08-01T00:48:14.437Z,2.00
2022-08-01T00:50:42.660Z,2.40
2022-08-01T00:53:11.230Z,2.30
2022-08-01T00:55:49.396Z,2.00
2022-08-01T00:58:17.984Z,2.00
2022-08-01T01:00:52.574Z,2.00
2022-08-01T01:03:26.305Z,1.70
2022-08-01T01:06:23.668Z,1.60
2022-08-01T01:08:54.608Z,2.00
2022-08-01T01:11:59.744Z,3.00
2022-08-01T01:14:53.406Z,1.70
2022-08-01T01:17:49.467Z,1.80
2022-08-01T01:20:20.055Z,1.80
2022-08-01T01:22:53.930Z,1.10
2022-08-01T01:25:24.814Z,1.30
2022-08-01T01:28:08.833Z,1.30
2022-08-01T01:30:39.925Z,1.20
2022-08-01T01:33:11.430Z,1.20
2022-08-01T01:36:02.664Z,1.40
2022-08-01T01:38:35.352Z,1.30
2022-08-01T01:41:06.545Z,1.40
2022-08-01T01:43:36.445Z,1.60
2022-08-01T01:46:06.336Z,1.40
2022-08-01T01:48:36.623Z,1.40
2022-08-01T01:51:05.371Z,1.10
2022-08-01T01:53:35.050Z,1.30
2022-08-01T01:56:04.627Z,1.40
2022-08-01T01:58:35.501Z,1.50
2022-08-01T02:01:04.871Z,1.60
2022-08-01T02:03:45.029Z,1.50
2022-08-01T02:06:17.998Z,1.50
2022-08-01T02:08:48.137Z,1.40
2022-08-01T02:11:24.975Z,1.50
2022-08-01T02:14:02.669Z,1.40
2022-08-01T02:16:35.351Z,1.70
2022-08-01T02:19:05.104Z,1.30
2022-08-01T02:21:42.716Z,1.60
2022-08-01T02:24:30.808Z,1.40
2022-08-01T02:27:05.603Z,1.50
2022-08-01T02:29:48.436Z,1.40
2022-08-01T02:32:25.676Z,1.60
2022-08-01T02:34:57.375Z,1.50
2022-08-01T02:37:28.556Z,1.30
2022-08-01T02:39:57.582Z,1.30
2022-08-01T02:42:28.722Z,1.50
2022-08-01T02:44:58.267Z,1.40
2022-08-01T02:47:29.436Z,1.20
2022-08-01T02:49:59.939Z,1.50
2022-08-01T02:52:30.667Z,1.40
2022-08-01T02:55:01.385Z,1.50
2022-08-01T02:57:51.907Z,1.50
2022-08-01T03:00:20.393Z,1.40
2022-08-01T03:02:57.670Z,1.20
2022-08-01T03:05:27.214Z,1.70
2022-08-01T03:08:02.569Z,1.50
2022-08-01T03:10:33.827Z,1.60
2022-08-01T03:13:04.756Z,1.60
2022-08-01T03:15:36.898Z,2.00
2022-08-01T03:18:08.110Z,1.80
2022-08-01T03:20:36.577Z,1.60
2022-08-01T03:23:07.864Z,1.50
2022-08-01T03:25:39.201Z,1.40
2022-08-01T03:28:09.306Z,1.50
2022-08-01T03:30:39.309Z,1.60
2022-08-01T03:33:07.903Z,1.50
2022-08-01T03:35:41.122Z,1.30
2022-08-01T03:38:16.411Z,1.50
2022-08-01T03:41:03.466Z,1.80
2022-08-01T03:43:42.708Z,1.60
2022-08-01T03:46:14.919Z,1.60
2022-08-01T03:48:49.528Z,1.50
2022-08-01T03:51:19.176Z,1.70
2022-08-01T03:53:50.059Z,1.60
2022-08-01T03:56:21.050Z,1.70
2022-08-01T03:58:50.591Z,1.60
2022-08-01T04:01:20.270Z,1.40
2022-08-01T04:03:48.493Z,1.50
2022-08-01T04:06:16.621Z,1.70
2022-08-01T04:08:56.426Z,1.80
2022-08-01T04:11:26.566Z,1.30
2022-08-01T04:13:55.603Z,1.10
2022-08-01T04:16:23.735Z,1.40
2022-08-01T04:18:52.279Z,1.40
2022-08-01T04:21:26.198Z,1.30
2022-08-01T04:23:57.184Z,1.10
2022-08-01T04:26:27.161Z,1.30
2022-08-01T04:28:56.777Z,1.20
2022-08-01T04:31:27.235Z,1.20
2022-08-01T04:33:57.174Z,1.30
2022-08-01T04:36:28.784Z,1.20
2022-08-01T04:39:01.146Z,1.70
2022-08-01T04:41:31.582Z,1.50
2022-08-01T04:44:00.509Z,1.10
2022-08-01T04:46:29.861Z,1.00
2022-08-01T04:48:58.653Z,1.40
2022-08-01T04:51:26.717Z,1.10
2022-08-01T04:53:54.718Z,1.10
2022-08-01T04:56:24.090Z,1.50
2022-08-01T04:59:20.020Z,1.10
2022-08-01T05:01:52.117Z,1.30
2022-08-01T05:04:20.225Z,1.40
2022-08-01T05:06:48.327Z,1.20
2022-08-01T05:09:17.050Z,1.10
2022-08-01T05:11:45.215Z,1.20
2022-08-01T05:14:13.265Z,1.50
2022-08-01T05:16:42.907Z,1.20
2022-08-01T05:19:11.047Z,1.30
2022-08-01T05:21:39.460Z,1.30
2022-08-01T05:24:07.671Z,1.30
2022-08-01T05:26:37.802Z,1.20
2022-08-01T05:29:06.547Z,1.40
2022-08-01T05:31:37.315Z,1.30
2022-08-01T05:34:05.450Z,1.40
2022-08-01T05:36:33.510Z,1.30
2022-08-01T05:39:01.498Z,1.10
2022-08-01T05:41:29.542Z,1.20
2022-08-01T05:43:57.597Z,1.20
2022-08-01T05:46:26.183Z,1.40
2022-08-01T05:48:55.539Z,1.40
2022-08-01T05:51:23.693Z,1.30
2022-08-01T05:53:52.689Z,1.20
2022-08-01T05:56:22.307Z,1.40
2022-08-01T05:58:51.601Z,1.00
2022-08-01T06:01:20.412Z,1.30
2022-08-01T06:03:48.840Z,1.20
2022-08-01T06:06:16.955Z,1.30
2022-08-01T06:08:45.006Z,1.30
2022-08-01T06:11:13.382Z,1.30
2022-08-01T06:13:47.054Z,1.10
2022-08-01T06:16:17.532Z,1.20
2022-08-01T06:18:45.603Z,1.50
2022-08-01T06:21:13.687Z,1.40
2022-08-01T06:23:43.317Z,1.30
2022-08-01T06:26:11.479Z,1.20
2022-08-01T06:28:40.348Z,1.30
2022-08-01T06:31:08.615Z,1.00
2022-08-01T06:33:36.651Z,1.40
2022-08-01T06:36:05.085Z,1.30
2022-08-01T06:38:33.422Z,1.40
2022-08-01T06:41:01.700Z,1.40
2022-08-01T06:43:29.883Z,1.50
2022-08-01T06:45:57.951Z,1.60
2022-08-01T06:48:26.052Z,1.70
2022-08-01T06:51:09.033Z,1.60
2022-08-01T06:53:38.945Z,1.30
2022-08-01T06:56:09.817Z,1.30
2022-08-01T06:58:38.098Z,1.60
2022-08-01T07:01:09.637Z,1.50
2022-08-01T07:03:52.689Z,1.70
2022-08-01T07:06:24.903Z,1.60
2022-08-01T07:08:54.185Z,1.60
2022-08-01T07:11:23.526Z,1.50
2022-08-01T07:13:51.669Z,1.30
2022-08-01T07:16:20.100Z,1.20
2022-08-01T07:18:48.308Z,1.20
2022-08-01T07:21:39.929Z,1.20
2022-08-01T07:24:11.367Z,1.50
2022-08-01T07:26:53.233Z,1.40
2022-08-01T07:29:24.620Z,1.20
2022-08-01T07:31:57.328Z,1.20
2022-08-01T07:34:26.748Z,1.20
2022-08-01T07:36:54.940Z,1.30
2022-08-01T07:39:23.308Z,1.20
2022-08-01T07:42:05.655Z,1.40
2022-08-01T07:44:36.570Z,1.40
2022-08-01T07:47:06.201Z,1.30
2022-08-01T07:49:39.630Z,2.20
2022-08-01T07:52:09.463Z,1.70
2022-08-01T07:54:38.173Z,2.00
2022-08-01T07:57:06.256Z,2.20
2022-08-01T07:59:34.722Z,1.20
2022-08-01T08:02:03.034Z,2.50
2022-08-01T08:04:31.402Z,1.10
2022-08-01T08:06:59.527Z,1.40
2022-08-01T08:09:27.645Z,1.30
2022-08-01T08:11:55.888Z,1.60
2022-08-01T08:14:32.296Z,1.20
2022-08-01T08:17:01.891Z,1.10
2022-08-01T08:19:37.822Z,1.00
2022-08-01T08:22:08.783Z,1.20
2022-08-01T08:24:45.501Z,1.00
2022-08-01T08:27:16.048Z,1.10
2022-08-01T08:29:44.896Z,1.00
2022-08-01T08:32:13.548Z,1.00
2022-08-01T08:34:42.047Z,1.10
2022-08-01T08:37:10.375Z,1.40
2022-08-01T08:39:41.730Z,1.00
2022-08-01T08:42:12.127Z,0.90
2022-08-01T08:44:44.691Z,1.10
2022-08-01T08:47:19.255Z,1.30
2022-08-01T08:49:50.093Z,1.20
2022-08-01T08:52:20.920Z,2.00
2022-08-01T08:54:51.002Z,1.20
2022-08-01T08:57:21.969Z,1.20
2022-08-01T08:59:53.133Z,1.30
2022-08-01T09:02:22.292Z,1.40
2022-08-01T09:04:51.964Z,1.10
2022-08-01T09:07:20.355Z,1.20
2022-08-01T09:09:50.296Z,1.40
2022-08-01T09:12:21.488Z,1.20
2022-08-01T09:14:51.398Z,1.10
2022-08-01T09:17:19.656Z,1.30
2022-08-01T09:19:54.567Z,1.30
2022-08-01T09:22:25.217Z,1.10
2022-08-01T09:24:59.424Z,1.30
2022-08-01T09:27:27.901Z,1.20
2022-08-01T09:30:07.749Z,1.10
2022-08-01T09:32:36.851Z,0.80
2022-08-01T09:35:54.974Z,1.10
2022-08-01T09:38:25.759Z,1.00
2022-08-01T09:41:02.079Z,1.00
2022-08-01T09:43:32.873Z,1.10
2022-08-01T09:46:07.514Z,1.20
2022-08-01T09:49:07.567Z,1.30
2022-08-01T09:52:00.501Z,0.90
2022-08-01T09:54:38.049Z,1.10
2022-08-01T09:57:13.619Z,0.90
2022-08-01T09:59:59.097Z,1.20
2022-08-01T10:02:28.739Z,1.00
2022-08-01T10:05:03.325Z,1.00
2022-08-01T10:07:43.947Z,1.10
2022-08-01T10:10:14.873Z,1.20
2022-08-01T10:12:44.372Z,1.20
2022-08-01T10:15:18.053Z,1.10
2022-08-01T10:17:54.589Z,1.20
2022-08-01T10:20:30.922Z,1.00
2022-08-01T10:23:05.877Z,1.40
2022-08-01T10:25:42.784Z,1.00
2022-08-01T10:28:18.010Z,0.90
2022-08-01T10:30:50.378Z,0.80
2022-08-01T10:33:51.259Z,1.10
2022-08-01T10:36:08.612Z,1.10
2022-08-01T10:38:37.733Z,1.00
2022-08-01T10:41:08.933Z,1.10
2022-08-01T10:43:37.443Z,1.80
2022-08-01T10:46:06.501Z,1.20
2022-08-01T10:48:47.255Z,1.20
2022-08-01T10:51:17.743Z,1.10
2022-08-01T10:53:49.265Z,1.00
2022-08-01T10:56:18.457Z,1.00
2022-08-01T10:58:49.070Z,1.60
2022-08-01T11:01:20.468Z,1.20
2022-08-01T11:04:06.431Z,1.90
2022-08-01T11:06:34.904Z,1.20
2022-08-01T11:09:07.243Z,1.40
2022-08-01T11:11:58.283Z,1.60
2022-08-01T11:14:53.735Z,1.20
2022-08-01T11:17:42.298Z,1.40
2022-08-01T11:20:15.151Z,1.20
2022-08-01T11:23:02.153Z,1.10
2022-08-01T11:26:03.396Z,1.10
2022-08-01T11:28:30.165Z,1.00
2022-08-01T11:31:07.388Z,1.60
2022-08-01T11:33:49.435Z,1.30
2022-08-01T11:36:56.665Z,0.90
2022-08-01T11:39:14.717Z,1.20
2022-08-01T11:41:45.054Z,1.10
2022-08-01T11:44:18.377Z,1.30
2022-08-01T11:46:52.832Z,1.20
2022-08-01T11:49:33.750Z,1.20
2022-08-01T11:52:04.316Z,1.00
2022-08-01T11:54:37.117Z,1.00
2022-08-01T11:57:11.005Z,1.10
2022-08-01T11:59:41.107Z,1.40
2022-08-01T12:02:35.300Z,1.30
2022-08-01T12:05:08.419Z,1.40
2022-08-01T12:07:44.893Z,1.00
2022-08-01T12:10:16.793Z,1.20
2022-08-01T12:12:47.888Z,1.30
2022-08-01T12:15:17.393Z,1.20
2022-08-01T12:17:58.875Z,1.00
2022-08-01T12:20:30.713Z,1.40
2022-08-01T12:23:08.554Z,1.40
2022-08-01T12:25:38.198Z,1.30
2022-08-01T12:28:08.521Z,0.80
2022-08-01T12:30:40.063Z,1.30
2022-08-01T12:33:11.467Z,1.00
2022-08-01T12:35:42.823Z,1.00
2022-08-01T12:38:20.242Z,1.30
2022-08-01T12:40:53.147Z,1.00
2022-08-01T12:43:27.986Z,1.10
2022-08-01T12:46:00.488Z,0.80
2022-08-01T12:48:32.201Z,1.10
2022-08-01T12:51:03.565Z,1.40
2022-08-01T12:53:40.566Z,1.20
2022-08-01T12:56:12.148Z,1.00
2022-08-01T12:58:40.475Z,1.10
2022-08-01T13:01:14.317Z,1.30
2022-08-01T13:03:57.999Z,1.50
2022-08-01T13:06:30.166Z,1.20
2022-08-01T13:09:10.044Z,1.20
2022-08-01T13:12:03.857Z,1.20
2022-08-01T13:14:36.990Z,1.10
2022-08-01T13:17:10.028Z,1.00
2022-08-01T13:19:48.253Z,1.30
2022-08-01T13:22:16.268Z,1.20
2022-08-01T13:24:44.303Z,1.00
2022-08-01T13:27:24.483Z,1.10
2022-08-01T13:29:54.055Z,1.40
2022-08-01T13:32:29.997Z,1.40
2022-08-01T13:35:10.676Z,1.30
2022-08-01T13:37:40.944Z,1.20
2022-08-01T13:40:10.662Z,1.20
2022-08-01T13:42:39.440Z,1.30
2022-08-01T13:45:14.139Z,1.20
2022-08-01T13:48:03.321Z,1.20
2022-08-01T13:50:32.904Z,1.30
2022-08-01T13:53:01.247Z,1.60
2022-08-01T13:55:34.610Z,1.30
2022-08-01T13:58:04.394Z,1.20
2022-08-01T14:00:32.737Z,1.10
2022-08-01T14:03:00.784Z,1.20
2022-08-01T14:05:29.063Z,1.70
2022-08-01T14:07:57.177Z,1.10
2022-08-01T14:10:26.526Z,1.10
2022-08-01T14:12:57.418Z,1.20
2022-08-01T14:15:38.630Z,1.50
2022-08-01T14:18:09.919Z,1.30
2022-08-01T14:20:39.815Z,1.70
2022-08-01T14:23:09.394Z,1.60
2022-08-01T14:26:02.552Z,1.10
2022-08-01T14:28:31.399Z,1.60
2022-08-01T14:30:59.477Z,1.50
2022-08-01T14:33:27.824Z,1.60
2022-08-01T14:36:05.853Z,1.50
2022-08-01T14:38:46.646Z,1.30
2022-08-01T14:41:18.291Z,1.50
2022-08-01T14:43:46.726Z,1.30
2022-08-01T14:46:14.897Z,1.40
2022-08-01T14:48:43.286Z,1.20
2022-08-01T14:51:11.667Z,1.30
2022-08-01T14:53:46.576Z,1.20
2022-08-01T14:56:19.196Z,1.40
2022-08-01T14:58:48.553Z,1.10
2022-08-01T15:01:19.158Z,1.30
2022-08-01T15:03:49.070Z,1.20
2022-08-01T15:06:18.890Z,1.30
2022-08-01T15:08:47.059Z,1.10
2022-08-01T15:11:15.559Z,1.20
2022-08-01T15:13:43.611Z,1.20
2022-08-01T15:16:12.099Z,1.30
2022-08-01T15:18:40.642Z,1.20
2022-08-01T15:21:14.418Z,1.40
2022-08-01T15:23:49.115Z,1.30
2022-08-01T15:26:17.695Z,1.20
2022-08-01T15:28:45.726Z,1.20
2022-08-01T15:31:14.450Z,1.10
2022-08-01T15:33:42.950Z,1.30
2022-08-01T15:36:12.366Z,1.30
2022-08-01T15:38:43.529Z,1.40
2022-08-01T15:41:11.957Z,1.60
2022-08-01T15:43:44.875Z,1.30
2022-08-01T15:46:13.266Z,1.40
2022-08-01T15:48:41.914Z,1.40
2022-08-01T15:51:10.100Z,1.20
2022-08-01T15:53:38.218Z,1.40
2022-08-01T15:56:06.361Z,1.50
2022-08-01T15:58:34.547Z,1.30
2022-08-01T16:01:02.551Z,1.80
2022-08-01T16:03:30.663Z,1.70
2022-08-01T16:05:58.731Z,1.60
2022-08-01T16:08:26.956Z,1.40
2022-08-01T16:10:55.057Z,1.30
2022-08-01T16:13:23.120Z,1.50
2022-08-01T16:15:51.149Z,1.20
2022-08-01T16:18:19.465Z,1.40
2022-08-01T16:20:47.427Z,1.70
2022-08-01T16:23:15.945Z,1.40
2022-08-01T16:25:45.013Z,1.30
2022-08-01T16:28:14.534Z,1.30
2022-08-01T16:30:50.216Z,1.40
2022-08-01T16:33:47.088Z,1.50
2022-08-01T16:36:16.692Z,1.50
2022-08-01T16:38:45.829Z,1.60
2022-08-01T16:41:19.209Z,1.50
2022-08-01T16:43:54.414Z,1.60
2022-08-01T16:46:27.158Z,1.60
2022-08-01T16:48:55.420Z,1.90
2022-08-01T16:51:23.886Z,1.30
2022-08-01T16:53:52.189Z,1.70
2022-08-01T16:56:20.899Z,1.40
2022-08-01T16:58:49.058Z,1.70
2022-08-01T17:01:58.174Z,1.60
2022-08-01T17:04:07.166Z,1.80
2022-08-01T17:06:35.316Z,1.90
2022-08-01T17:09:04.915Z,1.90
2022-08-01T17:11:33.237Z,1.90
2022-08-01T17:14:01.211Z,1.80
2022-08-01T17:16:29.268Z,1.80
2022-08-01T17:18:57.351Z,1.90
2022-08-01T17:21:25.374Z,1.80
2022-08-01T17:23:53.755Z,2.00
2022-08-01T17:26:21.901Z,1.70
2022-08-01T17:28:50.126Z,2.20
2022-08-01T17:31:18.147Z,2.10
2022-08-01T17:33:49.531Z,2.10
2022-08-01T17:36:21.361Z,2.20
2022-08-01T17:38:49.791Z,2.10
2022-08-01T17:41:17.871Z,2.20
2022-08-01T17:43:46.709Z,2.10
2022-08-01T17:46:14.761Z,2.00
2022-08-01T17:48:44.606Z,2.10
2022-08-01T17:51:13.297Z,1.90
2022-08-01T17:53:57.410Z,2.20
2022-08-01T17:56:27.501Z,2.00
2022-08-01T17:58:56.197Z,2.20
2022-08-01T18:01:26.708Z,2.50
2022-08-01T18:03:57.343Z,2.20
2022-08-01T18:06:26.728Z,2.00
2022-08-01T18:08:56.591Z,1.80
2022-08-01T18:11:27.852Z,2.00
2022-08-01T18:13:57.060Z,2.00
2022-08-01T18:16:28.684Z,1.80
2022-08-01T18:18:57.853Z,2.00
2022-08-01T18:21:26.135Z,2.40
2022-08-01T18:23:54.254Z,1.90
2022-08-01T18:26:22.333Z,2.20
2022-08-01T18:28:50.668Z,2.30
2022-08-01T18:31:20.505Z,2.10
2022-08-01T18:33:48.900Z,2.10
2022-08-01T18:36:31.349Z,2.00
2022-08-01T18:39:10.070Z,2.00
2022-08-01T18:41:39.439Z,2.10
2022-08-01T18:44:09.084Z,2.60
2022-08-01T18:46:39.124Z,2.10
2022-08-01T18:49:09.943Z,2.10
2022-08-01T18:51:44.256Z,1.90
2022-08-01T18:54:15.055Z,2.10
2022-08-01T18:56:44.397Z,2.20
2022-08-01T18:59:13.976Z,2.20
2022-08-01T19:01:41.984Z,1.90
2022-08-01T19:04:11.256Z,2.00
2022-08-01T19:06:40.337Z,2.00
2022-08-01T19:09:09.047Z,2.70
2022-08-01T19:11:37.172Z,2.60
2022-08-01T19:14:05.154Z,2.20
2022-08-01T19:16:34.106Z,2.60
2022-08-01T19:19:06.883Z,3.10
2022-08-01T19:21:36.324Z,3.20
2022-08-01T19:24:23.960Z,2.60
2022-08-01T19:26:56.476Z,2.30
2022-08-01T19:29:35.256Z,2.60
2022-08-01T19:32:07.220Z,2.30
2022-08-01T19:34:46.640Z,2.90
2022-08-01T19:37:16.115Z,2.50
2022-08-01T19:39:45.454Z,2.50
2022-08-01T19:42:14.875Z,2.40
2022-08-01T19:44:44.853Z,2.30
2022-08-01T19:47:14.263Z,2.60
2022-08-01T19:49:42.215Z,2.50
2022-08-01T19:52:11.129Z,2.70
2022-08-01T19:54:43.122Z,2.80
2022-08-01T19:57:14.771Z,2.80
2022-08-01T19:59:46.104Z,2.90
2022-08-01T20:02:20.401Z,2.90
2022-08-01T20:04:49.030Z,3.10
2022-08-01T20:07:17.013Z,3.00
2022-08-01T20:09:54.249Z,2.90
2022-08-01T20:12:23.329Z,2.60
2022-08-01T20:14:54.038Z,2.60
2022-08-01T20:17:23.530Z,2.80
2022-08-01T20:19:52.332Z,3.00
2022-08-01T20:22:26.855Z,2.90
2022-08-01T20:24:58.497Z,3.20
2022-08-01T20:27:28.419Z,2.50
2022-08-01T20:30:00.372Z,2.90
2022-08-01T20:32:31.874Z,3.10
2022-08-01T20:35:01.096Z,3.30
2022-08-01T20:38:03.862Z,3.60
2022-08-01T20:40:24.981Z,3.30
2022-08-01T20:42:54.415Z,4.30
2022-08-01T20:45:24.079Z,3.30
2022-08-01T20:47:54.114Z,3.30
2022-08-01T20:50:52.708Z,3.10
2022-08-01T20:53:24.475Z,3.00
2022-08-01T20:56:07.061Z,3.10
2022-08-01T20:58:58.710Z,3.30
2022-08-01T21:01:29.903Z,3.30
2022-08-01T21:04:09.275Z,3.10
2022-08-01T21:06:41.734Z,2.90
2022-08-01T21:09:14.124Z,3.30
2022-08-01T21:11:51.787Z,3.60
2022-08-01T21:14:22.436Z,3.40
2022-08-01T21:17:01.489Z,3.00
2022-08-01T21:19:31.923Z,2.90
2022-08-01T21:22:10.420Z,3.20
2022-08-01T21:25:04.344Z,3.10
2022-08-01T21:27:35.008Z,2.40
2022-08-01T21:30:06.696Z,2.70
2022-08-01T21:32:36.735Z,2.60
2022-08-01T21:35:16.301Z,3.20
2022-08-01T21:37:51.938Z,3.30
2022-08-01T21:40:23.167Z,3.00
2022-08-01T21:42:53.967Z,3.00
2022-08-01T21:45:24.618Z,2.80
2022-08-01T21:47:53.857Z,2.40
2022-08-01T21:50:23.444Z,2.60
2022-08-01T21:53:11.616Z,2.80
2022-08-01T21:56:14.719Z,2.40
2022-08-01T21:58:56.862Z,2.60
2022-08-01T22:01:51.277Z,3.10
2022-08-01T22:04:33.622Z,2.60
2022-08-01T22:07:03.212Z,2.90
2022-08-01T22:09:32.975Z,2.60
2022-08-01T22:12:06.241Z,2.90
2022-08-01T22:14:40.419Z,2.50
2022-08-01T22:17:10.503Z,2.30
2022-08-01T22:19:44.273Z,2.60
2022-08-01T22:22:45.049Z,2.40
2022-08-01T22:25:04.113Z,2.70
2022-08-01T22:28:08.449Z,2.60
2022-08-01T22:30:23.750Z,2.40
2022-08-01T22:33:08.024Z,2.80
2022-08-01T22:35:55.219Z,2.60
2022-08-01T22:38:24.556Z,2.70
2022-08-01T22:41:05.269Z,3.00
2022-08-01T22:43:50.114Z,2.90
2022-08-01T22:46:20.941Z,2.40
2022-08-01T22:49:14.991Z,2.30
2022-08-01T22:51:54.917Z,3.00
2022-08-01T22:54:36.685Z,2.60
2022-08-01T22:57:10.725Z,2.50
2022-08-01T22:59:52.752Z,2.30
2022-08-01T23:02:22.629Z,2.70
2022-08-01T23:04:55.685Z,2.70
2022-08-01T23:07:28.527Z,2.70
2022-08-01T23:09:58.280Z,2.60
2022-08-01T23:12:27.805Z,3.00
2022-08-01T23:14:58.008Z,3.00
2022-08-01T23:17:29.458Z,2.70
2022-08-01T23:20:03.746Z,2.70
2022-08-01T23:22:33.829Z,2.60
2022-08-01T23:25:06.479Z,2.20
2022-08-01T23:27:51.434Z,2.10
2022-08-01T23:30:29.541Z,2.50
2022-08-01T23:32:58.494Z,2.40
2022-08-01T23:35:28.191Z,2.40
2022-08-01T23:37:58.541Z,2.20
2022-08-01T23:40:33.578Z,2.80
2022-08-01T23:43:03.244Z,2.70
2022-08-01T23:46:00.714Z,3.00
2022-08-01T23:48:20.467Z,2.80
2022-08-01T23:50:48.446Z,2.50
2022-08-01T23:53:16.503Z,2.50
2022-08-01T23:55:44.608Z,2.50
2022-08-01T23:58:12.658Z,2.20
